Dauntless Aviation
Greetings, Guest! To participate, [sign up for a free account] or [log in]
Airports North America United States Texas
63TE

FLYING S RANCH AIRPORT

KENNARD, TX, USA

Airport Info

Location

Latitude / Longitude: 31°21'12"N / 95°12'20"W
  31°21.2109'N / 95°12.3463'W
  31.3535 / -95.2058
Elevation: 370 ft. (estimated)
Variation: 06E (1985)
From city: 01 miles SW of KENNARD, TX

Operations

Facility use: Private
Sectional chart: HOUSTON
Control tower: no
Boundary ARTCC: HOUSTON
FSS: MONTGOMERY COUNTY [1-800-WX-BRIEF]
Segmented circle: no

Communications

Nearby radio navigation aids

VOR radial/distance VOR name Freq Var
LFK 295oT/27.6 LUFKIN VORTAC 112.10 05E
 
NDB name Hdg/Dist Freq Var ID
NADOS 252oT/26.1 253 05E OC
CHEROKEE COUNTY 179oT/31.0 263 05E JSO
NACOGDOCHES 235oT/31.1 391 05E GXD
PALESTINE 135oT/36.0 375 04E PSN

Services

Runway Information

Runway 14/32

Dimensions: 2000 x 100 ft.
Surface: NATURAL SOIL,NO SPECIAL SURFACE TREATMENT
 
Runway 14
Runway 32
 

Additional Remarks

Instrument Procedures

No published instrument procedures available
Topographic chart at:
Satellite photo at:
Airport distance calculator
From:
Weather Reports

METAR

KDKR
10.5nm SW
KDKR 232355Z AUTO 00000KT 9SM CLR 32/26 A3002 RMK AO2
KLFK
24.5nm E
KLFK 232353Z AUTO 00000KT 10SM CLR 33/23 A2998 RMK AO2 SLP148 T03280228 10350 20328 56008
KOCH
28.1nm NE
KOCH 232355Z 34004KT 10SM CLR 31/23 A2999 RMK AO1 10330 20310 57007
KJSO
30.8nm NW
KJSO 232355Z AUTO 00000KT 10SM SCT047 30/21 A3003 RMK AO2 T03050212

TAF

KLFK
24.5nm E
KLFK 232335Z 2400/2424 VRB03KT P6SM SCT250 FM240300 VRB06KT P6SM VCTS SCT040CB TEMPO 2403/2404 02020G45KT 3SM -TSRA SCT040CB BKN250 FM240400 36007KT P6SM FEW050 SCT250 FM240600 00000KT P6SM SKC TEMPO 2410/2413 2SM BR BKN010 FM241500 27005KT P6SM SCT030 SCT250
Safelog

 

Dauntless Aviation

© 2007-2014 Dauntless Aviation, all rights reserved
Information provided via PilotNav comes from a variety of official and unofficial data sources. As errors are possible, do not use PilotNav for primary flight planning purposes. Verify any information that you receive via PilotNav with current and canonical charts and other official documents. The material in this database is subject to database copyrights held by Dauntless Aviation and may not be copied without the express permission of Dauntless Aviation - licenses for use of part of all of this data are available for purchase; enquire via the Dauntless Aviation helpdesk. A number of mechanisms and markers exist in the database to protect against and identify infringement / copyright. Automated queries against this website are stictly prohibited, and all activity is logged and analyzed.